sensor_id;sensor_type;location;lat;lon;timestamp;P1;durP1;ratioP1;P2;durP2;ratioP2
49444;SDS011;35323;43.080;-81.378;2022-08-04T00:04:36;0.63;;;0.63;;
49444;SDS011;35323;43.080;-81.378;2022-08-04T00:07:11;1.23;;;0.77;;
49444;SDS011;35323;43.080;-81.378;2022-08-04T00:09:43;0.75;;;0.73;;
49444;SDS011;35323;43.080;-81.378;2022-08-04T00:12:15;1.45;;;0.93;;
49444;SDS011;35323;43.080;-81.378;2022-08-04T00:14:47;0.73;;;0.60;;
49444;SDS011;35323;43.080;-81.378;2022-08-04T00:17:20;1.42;;;0.80;;
49444;SDS011;35323;43.080;-81.378;2022-08-04T00:22:16;0.73;;;0.57;;
49444;SDS011;35323;43.080;-81.378;2022-08-04T00:24:45;1.08;;;0.88;;
49444;SDS011;35323;43.080;-81.378;2022-08-04T00:27:13;5.32;;;1.15;;
49444;SDS011;35323;43.080;-81.378;2022-08-04T00:29:41;4.35;;;1.23;;
49444;SDS011;35323;43.080;-81.378;2022-08-04T00:32:09;1.40;;;1.05;;
49444;SDS011;35323;43.080;-81.378;2022-08-04T00:34:36;1.67;;;1.15;;
49444;SDS011;35323;43.080;-81.378;2022-08-04T00:37:05;0.80;;;0.47;;
49444;SDS011;35323;43.080;-81.378;2022-08-04T00:39:33;2.80;;;0.98;;
49444;SDS011;35323;43.080;-81.378;2022-08-04T00:44:42;1.60;;;0.90;;
49444;SDS011;35323;43.080;-81.378;2022-08-04T00:52:53;1.33;;;1.08;;
49444;SDS011;35323;43.080;-81.378;2022-08-04T00:57:56;1.42;;;1.08;;
49444;SDS011;35323;43.080;-81.378;2022-08-04T01:00:30;2.53;;;1.33;;
49444;SDS011;35323;43.080;-81.378;2022-08-04T01:11:03;1.10;;;0.93;;
49444;SDS011;35323;43.080;-81.378;2022-08-04T01:13:47;2.30;;;1.80;;
49444;SDS011;35323;43.080;-81.378;2022-08-04T01:16:19;2.58;;;1.80;;
49444;SDS011;35323;43.080;-81.378;2022-08-04T01:18:54;3.00;;;1.50;;
49444;SDS011;35323;43.080;-81.378;2022-08-04T01:27:00;3.95;;;1.98;;
49444;SDS011;35323;43.080;-81.378;2022-08-04T01:29:30;2.45;;;1.73;;
49444;SDS011;35323;43.080;-81.378;2022-08-04T01:32:16;2.60;;;1.85;;
49444;SDS011;35323;43.080;-81.378;2022-08-04T01:34:51;3.95;;;2.55;;
49444;SDS011;35323;43.080;-81.378;2022-08-04T01:40:03;4.95;;;2.45;;
49444;SDS011;35323;43.080;-81.378;2022-08-04T01:42:31;1.98;;;1.70;;
49444;SDS011;35323;43.080;-81.378;2022-08-04T01:45:06;5.32;;;2.42;;
49444;SDS011;35323;43.080;-81.378;2022-08-04T01:47:35;3.40;;;1.92;;
49444;SDS011;35323;43.080;-81.378;2022-08-04T01:50:07;3.00;;;1.83;;
49444;SDS011;35323;43.080;-81.378;2022-08-04T01:52:37;4.28;;;2.67;;
49444;SDS011;35323;43.080;-81.378;2022-08-04T01:55:05;4.78;;;2.42;;
49444;SDS011;35323;43.080;-81.378;2022-08-04T01:57:57;1.70;;;1.60;;
49444;SDS011;35323;43.080;-81.378;2022-08-04T02:00:23;4.20;;;1.52;;
49444;SDS011;35323;43.080;-81.378;2022-08-04T02:02:54;3.55;;;2.45;;
49444;SDS011;35323;43.080;-81.378;2022-08-04T02:05:23;3.75;;;2.80;;
49444;SDS011;35323;43.080;-81.378;2022-08-04T02:08:21;2.95;;;2.20;;
49444;SDS011;35323;43.080;-81.378;2022-08-04T02:11:02;2.03;;;1.80;;
49444;SDS011;35323;43.080;-81.378;2022-08-04T02:16:31;3.08;;;2.35;;
49444;SDS011;35323;43.080;-81.378;2022-08-04T02:21:46;4.15;;;2.38;;
49444;SDS011;35323;43.080;-81.378;2022-08-04T02:24:17;2.38;;;2.17;;
49444;SDS011;35323;43.080;-81.378;2022-08-04T02:26:47;3.42;;;1.90;;
49444;SDS011;35323;43.080;-81.378;2022-08-04T02:29:20;3.28;;;2.15;;
49444;SDS011;35323;43.080;-81.378;2022-08-04T02:31:55;2.30;;;2.00;;
49444;SDS011;35323;43.080;-81.378;2022-08-04T02:34:47;2.72;;;1.90;;
49444;SDS011;35323;43.080;-81.378;2022-08-04T02:37:20;3.17;;;2.33;;
49444;SDS011;35323;43.080;-81.378;2022-08-04T02:39:51;4.80;;;2.20;;
49444;SDS011;35323;43.080;-81.378;2022-08-04T02:42:20;2.38;;;2.00;;
49444;SDS011;35323;43.080;-81.378;2022-08-04T02:44:49;2.40;;;2.20;;
49444;SDS011;35323;43.080;-81.378;2022-08-04T02:47:20;2.72;;;2.17;;
49444;SDS011;35323;43.080;-81.378;2022-08-04T02:49:49;2.53;;;2.13;;
49444;SDS011;35323;43.080;-81.378;2022-08-04T02:52:18;4.93;;;2.53;;
49444;SDS011;35323;43.080;-81.378;2022-08-04T02:54:47;4.05;;;2.53;;
49444;SDS011;35323;43.080;-81.378;2022-08-04T02:57:16;3.63;;;2.55;;
49444;SDS011;35323;43.080;-81.378;2022-08-04T03:00:06;4.65;;;2.10;;
49444;SDS011;35323;43.080;-81.378;2022-08-04T03:05:12;2.30;;;1.80;;
49444;SDS011;35323;43.080;-81.378;2022-08-04T03:13:06;5.82;;;3.53;;
49444;SDS011;35323;43.080;-81.378;2022-08-04T03:15:57;3.70;;;2.60;;
49444;SDS011;35323;43.080;-81.378;2022-08-04T03:18:35;3.55;;;2.58;;
49444;SDS011;35323;43.080;-81.378;2022-08-04T03:21:12;5.03;;;2.55;;
49444;SDS011;35323;43.080;-81.378;2022-08-04T03:29:14;2.88;;;1.75;;
49444;SDS011;35323;43.080;-81.378;2022-08-04T03:34:41;2.92;;;2.45;;
49444;SDS011;35323;43.080;-81.378;2022-08-04T03:39:49;3.53;;;1.95;;
49444;SDS011;35323;43.080;-81.378;2022-08-04T03:59:48;3.15;;;2.10;;
49444;SDS011;35323;43.080;-81.378;2022-08-04T04:02:31;2.75;;;1.67;;
49444;SDS011;35323;43.080;-81.378;2022-08-04T04:13:18;2.55;;;1.63;;
49444;SDS011;35323;43.080;-81.378;2022-08-04T04:15:50;3.65;;;2.25;;
49444;SDS011;35323;43.080;-81.378;2022-08-04T04:23:47;2.58;;;1.95;;
49444;SDS011;35323;43.080;-81.378;2022-08-04T04:31:33;3.03;;;1.95;;
49444;SDS011;35323;43.080;-81.378;2022-08-04T04:39:31;5.65;;;2.15;;
49444;SDS011;35323;43.080;-81.378;2022-08-04T04:53:05;3.60;;;2.63;;
49444;SDS011;35323;43.080;-81.378;2022-08-04T04:55:38;2.22;;;1.95;;
49444;SDS011;35323;43.080;-81.378;2022-08-04T04:58:14;2.72;;;2.28;;
49444;SDS011;35323;43.080;-81.378;2022-08-04T05:03:27;2.15;;;1.63;;
49444;SDS011;35323;43.080;-81.378;2022-08-04T05:13:46;2.90;;;1.73;;
49444;SDS011;35323;43.080;-81.378;2022-08-04T05:16:43;2.20;;;1.77;;
49444;SDS011;35323;43.080;-81.378;2022-08-04T05:19:27;2.55;;;1.77;;
49444;SDS011;35323;43.080;-81.378;2022-08-04T05:22:03;1.88;;;1.48;;
49444;SDS011;35323;43.080;-81.378;2022-08-04T05:24:37;3.05;;;1.85;;
49444;SDS011;35323;43.080;-81.378;2022-08-04T05:27:14;2.15;;;1.60;;
49444;SDS011;35323;43.080;-81.378;2022-08-04T05:29:53;4.30;;;1.63;;
49444;SDS011;35323;43.080;-81.378;2022-08-04T05:32:23;2.80;;;1.40;;
49444;SDS011;35323;43.080;-81.378;2022-08-04T05:34:51;1.27;;;1.10;;
49444;SDS011;35323;43.080;-81.378;2022-08-04T05:37:22;2.05;;;1.55;;
49444;SDS011;35323;43.080;-81.378;2022-08-04T05:39:56;2.67;;;2.08;;
49444;SDS011;35323;43.080;-81.378;2022-08-04T05:42:25;3.65;;;3.00;;
49444;SDS011;35323;43.080;-81.378;2022-08-04T05:44:53;1.20;;;1.10;;
49444;SDS011;35323;43.080;-81.378;2022-08-04T05:47:21;2.25;;;1.30;;
49444;SDS011;35323;43.080;-81.378;2022-08-04T05:49:50;2.35;;;1.58;;
49444;SDS011;35323;43.080;-81.378;2022-08-04T05:52:28;0.93;;;0.82;;
49444;SDS011;35323;43.080;-81.378;2022-08-04T05:54:57;2.67;;;1.77;;
49444;SDS011;35323;43.080;-81.378;2022-08-04T05:57:29;4.80;;;1.60;;
49444;SDS011;35323;43.080;-81.378;2022-08-04T05:59:58;1.35;;;0.90;;
49444;SDS011;35323;43.080;-81.378;2022-08-04T06:02:40;2.65;;;1.67;;
49444;SDS011;35323;43.080;-81.378;2022-08-04T06:05:09;1.45;;;1.10;;
49444;SDS011;35323;43.080;-81.378;2022-08-04T06:07:38;1.73;;;1.27;;
49444;SDS011;35323;43.080;-81.378;2022-08-04T06:10:26;3.70;;;1.00;;
49444;SDS011;35323;43.080;-81.378;2022-08-04T06:12:55;1.23;;;1.05;;
49444;SDS011;35323;43.080;-81.378;2022-08-04T06:15:23;0.68;;;0.57;;
49444;SDS011;35323;43.080;-81.378;2022-08-04T06:18:03;1.55;;;1.20;;
49444;SDS011;35323;43.080;-81.378;2022-08-04T06:20:53;2.30;;;1.23;;
49444;SDS011;35323;43.080;-81.378;2022-08-04T06:23:21;4.03;;;1.38;;
49444;SDS011;35323;43.080;-81.378;2022-08-04T06:25:50;1.73;;;1.52;;
49444;SDS011;35323;43.080;-81.378;2022-08-04T06:28:19;1.40;;;1.00;;
49444;SDS011;35323;43.080;-81.378;2022-08-04T06:30:47;2.75;;;1.20;;
49444;SDS011;35323;43.080;-81.378;2022-08-04T06:33:17;3.17;;;1.63;;
49444;SDS011;35323;43.080;-81.378;2022-08-04T06:35:53;2.95;;;0.82;;
49444;SDS011;35323;43.080;-81.378;2022-08-04T06:38:22;1.80;;;0.95;;
49444;SDS011;35323;43.080;-81.378;2022-08-04T06:40:54;1.88;;;1.00;;
49444;SDS011;35323;43.080;-81.378;2022-08-04T06:43:25;2.13;;;1.15;;
49444;SDS011;35323;43.080;-81.378;2022-08-04T06:45:56;3.55;;;1.85;;
49444;SDS011;35323;43.080;-81.378;2022-08-04T06:48:28;1.35;;;1.25;;
49444;SDS011;35323;43.080;-81.378;2022-08-04T06:50:59;3.03;;;1.50;;
49444;SDS011;35323;43.080;-81.378;2022-08-04T06:53:47;1.88;;;1.10;;
49444;SDS011;35323;43.080;-81.378;2022-08-04T06:56:15;3.92;;;1.42;;
49444;SDS011;35323;43.080;-81.378;2022-08-04T06:58:46;1.67;;;1.45;;
49444;SDS011;35323;43.080;-81.378;2022-08-04T07:01:15;2.10;;;1.75;;
49444;SDS011;35323;43.080;-81.378;2022-08-04T07:03:44;1.48;;;1.00;;
49444;SDS011;35323;43.080;-81.378;2022-08-04T07:06:16;1.08;;;0.98;;
49444;SDS011;35323;43.080;-81.378;2022-08-04T07:08:45;1.23;;;0.90;;
49444;SDS011;35323;43.080;-81.378;2022-08-04T07:11:13;2.42;;;1.60;;
49444;SDS011;35323;43.080;-81.378;2022-08-04T07:13:41;4.35;;;1.05;;
49444;SDS011;35323;43.080;-81.378;2022-08-04T07:16:12;2.15;;;1.02;;
49444;SDS011;35323;43.080;-81.378;2022-08-04T07:18:41;2.30;;;1.20;;
49444;SDS011;35323;43.080;-81.378;2022-08-04T07:21:09;2.83;;;1.30;;
49444;SDS011;35323;43.080;-81.378;2022-08-04T07:23:37;1.42;;;1.33;;
49444;SDS011;35323;43.080;-81.378;2022-08-04T07:26:06;2.15;;;1.20;;
49444;SDS011;35323;43.080;-81.378;2022-08-04T07:31:08;1.05;;;0.95;;
49444;SDS011;35323;43.080;-81.378;2022-08-04T07:33:56;1.20;;;1.10;;
49444;SDS011;35323;43.080;-81.378;2022-08-04T07:36:44;2.42;;;1.80;;
49444;SDS011;35323;43.080;-81.378;2022-08-04T07:39:18;3.33;;;2.10;;
49444;SDS011;35323;43.080;-81.378;2022-08-04T07:41:54;2.25;;;1.48;;
49444;SDS011;35323;43.080;-81.378;2022-08-04T07:44:22;1.02;;;0.77;;
49444;SDS011;35323;43.080;-81.378;2022-08-04T07:46:51;3.55;;;1.70;;
49444;SDS011;35323;43.080;-81.378;2022-08-04T07:49:19;3.22;;;1.67;;
49444;SDS011;35323;43.080;-81.378;2022-08-04T07:52:07;5.35;;;1.48;;
49444;SDS011;35323;43.080;-81.378;2022-08-04T07:54:36;1.95;;;1.75;;
49444;SDS011;35323;43.080;-81.378;2022-08-04T07:57:05;2.20;;;1.63;;
49444;SDS011;35323;43.080;-81.378;2022-08-04T07:59:45;4.38;;;2.38;;
49444;SDS011;35323;43.080;-81.378;2022-08-04T08:02:15;2.20;;;1.65;;
49444;SDS011;35323;43.080;-81.378;2022-08-04T08:04:45;1.77;;;1.30;;
49444;SDS011;35323;43.080;-81.378;2022-08-04T08:07:13;2.97;;;2.13;;
49444;SDS011;35323;43.080;-81.378;2022-08-04T08:09:40;3.65;;;1.33;;
49444;SDS011;35323;43.080;-81.378;2022-08-04T08:12:08;2.38;;;1.55;;
49444;SDS011;35323;43.080;-81.378;2022-08-04T08:14:57;3.85;;;1.45;;
49444;SDS011;35323;43.080;-81.378;2022-08-04T08:17:26;1.95;;;1.45;;
49444;SDS011;35323;43.080;-81.378;2022-08-04T08:19:53;1.52;;;1.25;;
49444;SDS011;35323;43.080;-81.378;2022-08-04T08:22:21;2.47;;;2.28;;
49444;SDS011;35323;43.080;-81.378;2022-08-04T08:24:48;1.95;;;1.52;;
49444;SDS011;35323;43.080;-81.378;2022-08-04T08:27:16;3.13;;;1.77;;
49444;SDS011;35323;43.080;-81.378;2022-08-04T08:29:45;2.72;;;1.40;;
49444;SDS011;35323;43.080;-81.378;2022-08-04T08:32:13;3.20;;;2.42;;
49444;SDS011;35323;43.080;-81.378;2022-08-04T08:34:41;2.58;;;1.80;;
49444;SDS011;35323;43.080;-81.378;2022-08-04T08:37:16;3.13;;;2.83;;
49444;SDS011;35323;43.080;-81.378;2022-08-04T08:39:56;2.03;;;1.77;;
49444;SDS011;35323;43.080;-81.378;2022-08-04T08:53:30;2.13;;;1.35;;
49444;SDS011;35323;43.080;-81.378;2022-08-04T08:59:02;1.58;;;1.30;;
49444;SDS011;35323;43.080;-81.378;2022-08-04T09:07:05;5.97;;;1.63;;
49444;SDS011;35323;43.080;-81.378;2022-08-04T09:17:17;6.57;;;2.10;;
49444;SDS011;35323;43.080;-81.378;2022-08-04T09:19:58;3.25;;;2.15;;
49444;SDS011;35323;43.080;-81.378;2022-08-04T09:22:28;1.95;;;1.75;;
49444;SDS011;35323;43.080;-81.378;2022-08-04T09:27:49;2.40;;;2.05;;
49444;SDS011;35323;43.080;-81.378;2022-08-04T09:30:18;3.42;;;2.72;;
49444;SDS011;35323;43.080;-81.378;2022-08-04T09:32:55;2.67;;;1.95;;
49444;SDS011;35323;43.080;-81.378;2022-08-04T09:35:39;4.75;;;2.25;;
49444;SDS011;35323;43.080;-81.378;2022-08-04T09:38:15;1.80;;;1.50;;
49444;SDS011;35323;43.080;-81.378;2022-08-04T09:43:25;4.47;;;2.15;;
49444;SDS011;35323;43.080;-81.378;2022-08-04T09:59:56;3.13;;;2.22;;
49444;SDS011;35323;43.080;-81.378;2022-08-04T10:02:27;7.18;;;2.42;;
49444;SDS011;35323;43.080;-81.378;2022-08-04T10:04:57;6.22;;;2.72;;
49444;SDS011;35323;43.080;-81.378;2022-08-04T10:07:44;5.75;;;2.75;;
49444;SDS011;35323;43.080;-81.378;2022-08-04T10:13:22;7.35;;;3.15;;
49444;SDS011;35323;43.080;-81.378;2022-08-04T10:18:47;3.58;;;2.53;;
49444;SDS011;35323;43.080;-81.378;2022-08-04T10:21:18;3.28;;;2.53;;
49444;SDS011;35323;43.080;-81.378;2022-08-04T10:24:03;4.18;;;3.10;;
49444;SDS011;35323;43.080;-81.378;2022-08-04T10:29:19;5.93;;;3.80;;
49444;SDS011;35323;43.080;-81.378;2022-08-04T10:32:32;4.82;;;2.75;;
49444;SDS011;35323;43.080;-81.378;2022-08-04T10:35:14;4.68;;;2.80;;
49444;SDS011;35323;43.080;-81.378;2022-08-04T10:37:48;5.25;;;3.63;;
49444;SDS011;35323;43.080;-81.378;2022-08-04T10:45:58;4.60;;;3.05;;
49444;SDS011;35323;43.080;-81.378;2022-08-04T10:51:14;3.50;;;3.03;;
49444;SDS011;35323;43.080;-81.378;2022-08-04T10:53:42;5.30;;;3.28;;
49444;SDS011;35323;43.080;-81.378;2022-08-04T10:56:18;6.18;;;3.25;;
49444;SDS011;35323;43.080;-81.378;2022-08-04T10:58:57;4.43;;;3.40;;
49444;SDS011;35323;43.080;-81.378;2022-08-04T11:01:28;3.55;;;2.85;;
49444;SDS011;35323;43.080;-81.378;2022-08-04T11:04:25;6.65;;;2.90;;
49444;SDS011;35323;43.080;-81.378;2022-08-04T11:06:57;9.20;;;4.43;;
49444;SDS011;35323;43.080;-81.378;2022-08-04T11:09:26;3.35;;;2.72;;
49444;SDS011;35323;43.080;-81.378;2022-08-04T11:12:13;5.93;;;4.28;;
49444;SDS011;35323;43.080;-81.378;2022-08-04T11:14:58;3.30;;;3.00;;
49444;SDS011;35323;43.080;-81.378;2022-08-04T11:17:28;3.92;;;3.55;;
49444;SDS011;35323;43.080;-81.378;2022-08-04T11:25:28;7.95;;;3.33;;
49444;SDS011;35323;43.080;-81.378;2022-08-04T11:28:10;3.65;;;2.95;;
49444;SDS011;35323;43.080;-81.378;2022-08-04T11:30:46;4.55;;;4.03;;
49444;SDS011;35323;43.080;-81.378;2022-08-04T11:35:51;4.00;;;3.13;;
49444;SDS011;35323;43.080;-81.378;2022-08-04T11:38:21;5.95;;;4.32;;
49444;SDS011;35323;43.080;-81.378;2022-08-04T11:40:56;9.52;;;3.50;;
49444;SDS011;35323;43.080;-81.378;2022-08-04T11:43:35;4.22;;;3.72;;
49444;SDS011;35323;43.080;-81.378;2022-08-04T11:46:31;5.13;;;3.13;;
49444;SDS011;35323;43.080;-81.378;2022-08-04T11:49:02;7.75;;;2.95;;
49444;SDS011;35323;43.080;-81.378;2022-08-04T11:51:32;6.95;;;3.95;;
49444;SDS011;35323;43.080;-81.378;2022-08-04T11:54:00;5.70;;;3.22;;
49444;SDS011;35323;43.080;-81.378;2022-08-04T11:56:28;4.10;;;3.40;;
49444;SDS011;35323;43.080;-81.378;2022-08-04T11:59:03;7.75;;;5.60;;
49444;SDS011;35323;43.080;-81.378;2022-08-04T12:04:30;7.05;;;4.60;;
49444;SDS011;35323;43.080;-81.378;2022-08-04T12:07:06;6.10;;;4.88;;
49444;SDS011;35323;43.080;-81.378;2022-08-04T12:10:02;5.78;;;4.97;;
49444;SDS011;35323;43.080;-81.378;2022-08-04T12:12:57;4.40;;;3.40;;
49444;SDS011;35323;43.080;-81.378;2022-08-04T12:18:23;5.00;;;3.42;;
49444;SDS011;35323;43.080;-81.378;2022-08-04T12:20:59;4.15;;;3.42;;
49444;SDS011;35323;43.080;-81.378;2022-08-04T12:23:29;5.28;;;3.70;;
49444;SDS011;35323;43.080;-81.378;2022-08-04T12:26:03;4.50;;;3.75;;
49444;SDS011;35323;43.080;-81.378;2022-08-04T12:28:34;5.40;;;3.88;;
49444;SDS011;35323;43.080;-81.378;2022-08-04T12:31:26;5.25;;;3.90;;
49444;SDS011;35323;43.080;-81.378;2022-08-04T12:34:03;5.05;;;4.55;;
49444;SDS011;35323;43.080;-81.378;2022-08-04T12:39:19;6.97;;;4.00;;
49444;SDS011;35323;43.080;-81.378;2022-08-04T12:41:51;5.78;;;4.15;;
49444;SDS011;35323;43.080;-81.378;2022-08-04T12:44:24;4.72;;;4.00;;
49444;SDS011;35323;43.080;-81.378;2022-08-04T12:47:04;5.82;;;4.10;;
49444;SDS011;35323;43.080;-81.378;2022-08-04T12:49:52;3.85;;;2.83;;
49444;SDS011;35323;43.080;-81.378;2022-08-04T12:52:27;7.03;;;4.65;;
49444;SDS011;35323;43.080;-81.378;2022-08-04T12:55:16;8.63;;;4.85;;
49444;SDS011;35323;43.080;-81.378;2022-08-04T12:57:45;4.80;;;3.78;;
49444;SDS011;35323;43.080;-81.378;2022-08-04T13:00:24;5.53;;;3.28;;
49444;SDS011;35323;43.080;-81.378;2022-08-04T13:02:59;11.10;;;3.80;;
49444;SDS011;35323;43.080;-81.378;2022-08-04T13:05:36;6.00;;;4.45;;
49444;SDS011;35323;43.080;-81.378;2022-08-04T13:08:04;7.88;;;4.25;;
49444;SDS011;35323;43.080;-81.378;2022-08-04T13:10:36;5.00;;;3.88;;
49444;SDS011;35323;43.080;-81.378;2022-08-04T13:13:04;7.78;;;5.05;;
49444;SDS011;35323;43.080;-81.378;2022-08-04T13:15:37;7.22;;;4.53;;
49444;SDS011;35323;43.080;-81.378;2022-08-04T13:18:22;6.25;;;4.85;;
49444;SDS011;35323;43.080;-81.378;2022-08-04T13:29:03;6.10;;;4.38;;
49444;SDS011;35323;43.080;-81.378;2022-08-04T13:31:42;6.80;;;3.95;;
49444;SDS011;35323;43.080;-81.378;2022-08-04T13:34:18;5.88;;;4.38;;
49444;SDS011;35323;43.080;-81.378;2022-08-04T13:36:46;5.97;;;4.32;;
49444;SDS011;35323;43.080;-81.378;2022-08-04T13:39:15;5.60;;;4.18;;
49444;SDS011;35323;43.080;-81.378;2022-08-04T13:44:29;9.18;;;4.82;;
49444;SDS011;35323;43.080;-81.378;2022-08-04T13:46:58;6.00;;;3.92;;
49444;SDS011;35323;43.080;-81.378;2022-08-04T13:49:26;7.35;;;5.50;;
49444;SDS011;35323;43.080;-81.378;2022-08-04T13:52:14;10.52;;;4.28;;
49444;SDS011;35323;43.080;-81.378;2022-08-04T13:54:43;8.32;;;5.80;;
49444;SDS011;35323;43.080;-81.378;2022-08-04T13:57:15;9.65;;;6.22;;
49444;SDS011;35323;43.080;-81.378;2022-08-04T13:59:47;7.78;;;5.03;;
49444;SDS011;35323;43.080;-81.378;2022-08-04T14:02:51;8.63;;;6.53;;
49444;SDS011;35323;43.080;-81.378;2022-08-04T14:05:14;9.98;;;6.25;;
49444;SDS011;35323;43.080;-81.378;2022-08-04T14:07:45;7.07;;;5.65;;
49444;SDS011;35323;43.080;-81.378;2022-08-04T14:10:13;9.52;;;7.28;;
49444;SDS011;35323;43.080;-81.378;2022-08-04T14:12:43;11.15;;;7.53;;
49444;SDS011;35323;43.080;-81.378;2022-08-04T14:15:35;7.63;;;5.78;;
49444;SDS011;35323;43.080;-81.378;2022-08-04T14:18:22;7.72;;;5.78;;
49444;SDS011;35323;43.080;-81.378;2022-08-04T14:20:58;11.30;;;8.90;;
49444;SDS011;35323;43.080;-81.378;2022-08-04T14:23:26;8.85;;;6.93;;
49444;SDS011;35323;43.080;-81.378;2022-08-04T14:25:58;13.02;;;6.88;;
49444;SDS011;35323;43.080;-81.378;2022-08-04T14:28:30;10.02;;;7.25;;
49444;SDS011;35323;43.080;-81.378;2022-08-04T14:31:18;10.95;;;7.07;;
49444;SDS011;35323;43.080;-81.378;2022-08-04T14:33:47;12.32;;;7.57;;
49444;SDS011;35323;43.080;-81.378;2022-08-04T14:36:39;14.98;;;7.50;;
49444;SDS011;35323;43.080;-81.378;2022-08-04T14:39:37;7.60;;;6.88;;
49444;SDS011;35323;43.080;-81.378;2022-08-04T14:42:05;13.45;;;8.15;;
49444;SDS011;35323;43.080;-81.378;2022-08-04T14:44:54;9.07;;;6.38;;
49444;SDS011;35323;43.080;-81.378;2022-08-04T14:47:56;11.77;;;7.07;;
49444;SDS011;35323;43.080;-81.378;2022-08-04T14:55:35;10.05;;;7.28;;
49444;SDS011;35323;43.080;-81.378;2022-08-04T14:58:03;10.00;;;8.02;;
49444;SDS011;35323;43.080;-81.378;2022-08-04T15:00:52;8.25;;;7.07;;
49444;SDS011;35323;43.080;-81.378;2022-08-04T15:03:20;7.50;;;6.72;;
49444;SDS011;35323;43.080;-81.378;2022-08-04T15:05:48;10.70;;;7.00;;
49444;SDS011;35323;43.080;-81.378;2022-08-04T15:08:31;9.82;;;6.60;;
49444;SDS011;35323;43.080;-81.378;2022-08-04T15:10:59;9.95;;;7.10;;
49444;SDS011;35323;43.080;-81.378;2022-08-04T15:13:29;8.27;;;6.82;;
49444;SDS011;35323;43.080;-81.378;2022-08-04T15:15:58;8.82;;;5.65;;
49444;SDS011;35323;43.080;-81.378;2022-08-04T15:18:36;8.13;;;6.60;;
49444;SDS011;35323;43.080;-81.378;2022-08-04T15:21:05;7.75;;;6.68;;
49444;SDS011;35323;43.080;-81.378;2022-08-04T15:23:34;6.38;;;5.55;;
49444;SDS011;35323;43.080;-81.378;2022-08-04T15:26:10;10.00;;;6.30;;
49444;SDS011;35323;43.080;-81.378;2022-08-04T15:28:41;6.95;;;6.30;;
49444;SDS011;35323;43.080;-81.378;2022-08-04T15:31:12;8.98;;;5.70;;
49444;SDS011;35323;43.080;-81.378;2022-08-04T15:34:02;9.95;;;5.85;;
49444;SDS011;35323;43.080;-81.378;2022-08-04T15:41:55;8.25;;;5.65;;
49444;SDS011;35323;43.080;-81.378;2022-08-04T15:47:11;8.35;;;4.88;;
49444;SDS011;35323;43.080;-81.378;2022-08-04T15:49:39;7.07;;;5.95;;
49444;SDS011;35323;43.080;-81.378;2022-08-04T15:52:10;8.50;;;5.43;;
49444;SDS011;35323;43.080;-81.378;2022-08-04T15:54:38;8.45;;;6.90;;
49444;SDS011;35323;43.080;-81.378;2022-08-04T15:57:17;9.38;;;5.95;;
49444;SDS011;35323;43.080;-81.378;2022-08-04T16:00:05;12.25;;;7.63;;
49444;SDS011;35323;43.080;-81.378;2022-08-04T23:08:57;9.15;;;8.25;;
49444;SDS011;35323;43.080;-81.378;2022-08-04T23:11:25;9.02;;;7.97;;
49444;SDS011;35323;43.080;-81.378;2022-08-04T23:14:02;9.93;;;8.45;;
